Time;durP1;ratioP1;P1;durP2;ratioP2;P2;SDS_P1;SDS_P2;PMS_P1;PMS_P2;Temp;Humidity;BMP_temperature;BMP_pressure;BME280_temperature;BME280_humidity;BME280_pressure;Samples;Min_cycle;Max_cycle;Signal;HPM_P1;HPM_P2
2021/10/29 00:01:57;;;;;;;34.80;21.40;;;;;;;;;;139019;1198;97557;-78
2021/10/29 00:05:01;;;;;;;35.70;20.80;;;;;;;;;;139026;1190;97553;-77
2021/10/29 00:08:05;;;;;;;36.80;21.80;;;;;;;;;;139045;1190;97660;-77
2021/10/29 00:11:09;;;;;;;33.30;21.10;;;;;;;;;;139057;1190;97564;-78
2021/10/29 00:14:13;;;;;;;33.20;21.50;;;;;;;;;;139023;1190;96376;-79
2021/10/29 00:17:17;;;;;;;33.90;21.10;;;;;;;;;;139017;1190;96311;-78
2021/10/29 00:20:21;;;;;;;36.50;22.80;;;;;;;;;;139037;1190;96279;-77
2021/10/29 00:23:27;;;;;;;38.60;22.90;;;;;;;;;;139069;1177;96416;-77
2021/10/29 00:26:31;;;;;;;34.50;21.50;;;;;;;;;;139039;1190;96399;-78
2021/10/29 00:29:34;;;;;;;38.40;22.90;;;;;;;;;;139003;1190;96310;-77
2021/10/29 00:32:38;;;;;;;33.40;20.60;;;;;;;;;;138989;1190;97588;-75
2021/10/29 00:35:42;;;;;;;36.00;20.30;;;;;;;;;;138935;1190;96316;-75
2021/10/29 00:38:46;;;;;;;30.40;18.40;;;;;;;;;;138997;1190;97597;-76
2021/10/29 00:41:50;;;;;;;32.40;20.90;;;;;;;;;;139062;1190;97234;-76
2021/10/29 00:44:54;;;;;;;32.50;20.90;;;;;;;;;;139061;1198;97116;-74
2021/10/29 00:47:58;;;;;;;32.40;21.70;;;;;;;;;;139018;1190;96356;-76
2021/10/29 00:51:02;;;;;;;30.90;19.60;;;;;;;;;;139028;1190;96323;-77
2021/10/29 00:54:06;;;;;;;33.30;19.90;;;;;;;;;;139018;1190;96384;-76
2021/10/29 00:57:10;;;;;;;32.10;21.30;;;;;;;;;;139004;1190;96279;-77
2021/10/29 01:00:15;;;;;;;34.10;21.80;;;;;;;;;;139069;1190;97560;-80
2021/10/29 01:03:19;;;;;;;32.30;21.40;;;;;;;;;;139100;1190;96312;-77
2021/10/29 01:06:24;;;;;;;36.90;21.50;;;;;;;;;;139035;1190;96725;-75
2021/10/29 01:09:28;;;;;;;34.60;20.90;;;;;;;;;;139052;1190;96389;-77
2021/10/29 01:12:32;;;;;;;34.60;22.80;;;;;;;;;;139007;1190;96303;-77
2021/10/29 01:15:36;;;;;;;37.60;22.30;;;;;;;;;;139046;1191;96294;-76
2021/10/29 01:18:40;;;;;;;35.50;21.70;;;;;;;;;;139001;1190;97568;-75
2021/10/29 01:21:44;;;;;;;32.40;19.90;;;;;;;;;;139015;1190;97128;-76
2021/10/29 01:24:48;;;;;;;38.20;22.60;;;;;;;;;;139005;1190;96737;-77
2021/10/29 01:27:52;;;;;;;36.50;22.00;;;;;;;;;;139049;1190;96376;-75
2021/10/29 01:30:56;;;;;;;41.10;22.70;;;;;;;;;;138992;1190;96394;-74
2021/10/29 01:33:59;;;;;;;36.10;22.30;;;;;;;;;;138901;1190;96287;-74
2021/10/29 01:37:05;;;;;;;43.90;25.20;;;;;;;;;;139001;1190;96384;-76
2021/10/29 01:40:11;;;;;;;39.20;24.00;;;;;;;;;;138783;1193;97670;-76
2021/10/29 01:43:15;;;;;;;35.00;22.30;;;;;;;;;;139055;1190;97607;-77
2021/10/29 01:46:19;;;;;;;39.10;24.80;;;;;;;;;;139038;1192;96316;-77
2021/10/29 01:49:23;;;;;;;39.80;23.80;;;;;;;;;;138986;1190;96279;-77
2021/10/29 01:52:28;;;;;;;39.40;24.10;;;;;;;;;;138994;1190;96396;-76
2021/10/29 01:55:31;;;;;;;40.50;25.00;;;;;;;;;;139046;1190;96300;-77
2021/10/29 01:58:35;;;;;;;40.10;23.20;;;;;;;;;;139036;1190;96348;-78
2021/10/29 02:01:39;;;;;;;39.60;23.50;;;;;;;;;;138984;1190;96279;-78
2021/10/29 02:04:43;;;;;;;36.80;22.60;;;;;;;;;;138977;1177;96315;-76
2021/10/29 02:07:47;;;;;;;39.20;23.40;;;;;;;;;;138963;1190;96703;-75
2021/10/29 02:10:51;;;;;;;40.30;25.40;;;;;;;;;;139001;1198;97202;-76
2021/10/29 02:13:55;;;;;;;40.40;24.20;;;;;;;;;;138975;1190;96351;-75
2021/10/29 02:16:59;;;;;;;40.80;23.90;;;;;;;;;;138993;1190;96431;-75
2021/10/29 02:20:04;;;;;;;40.40;25.10;;;;;;;;;;139007;1182;96387;-76
2021/10/29 02:23:08;;;;;;;38.70;23.30;;;;;;;;;;138966;1190;96289;-76
2021/10/29 02:26:12;;;;;;;38.70;23.70;;;;;;;;;;139064;1198;96376;-76
2021/10/29 02:29:16;;;;;;;43.30;26.40;;;;;;;;;;138992;1190;96585;-74
2021/10/29 02:32:20;;;;;;;40.90;24.30;;;;;;;;;;139089;1198;96450;-74
2021/10/29 02:35:23;;;;;;;41.50;25.90;;;;;;;;;;138962;1190;96360;-77
2021/10/29 02:38:28;;;;;;;45.10;26.60;;;;;;;;;;139038;1190;96303;-73
2021/10/29 02:41:32;;;;;;;47.60;27.20;;;;;;;;;;139055;1190;97101;-73
2021/10/29 02:44:36;;;;;;;40.70;24.10;;;;;;;;;;138987;1192;97546;-74
2021/10/29 02:47:40;;;;;;;51.10;28.40;;;;;;;;;;139043;1190;96287;-72
2021/10/29 02:50:44;;;;;;;50.80;29.00;;;;;;;;;;139036;1190;96289;-73
2021/10/29 02:53:48;;;;;;;49.30;29.00;;;;;;;;;;139109;1191;97262;-74
2021/10/29 02:56:52;;;;;;;51.80;30.80;;;;;;;;;;139081;1198;97115;-75
2021/10/29 02:59:55;;;;;;;53.60;31.10;;;;;;;;;;139126;1190;97554;-74
2021/10/29 03:02:59;;;;;;;55.40;31.90;;;;;;;;;;139012;1190;96304;-74
2021/10/29 03:06:03;;;;;;;57.00;31.50;;;;;;;;;;139042;1190;97549;-77
2021/10/29 03:09:07;;;;;;;51.80;29.70;;;;;;;;;;139118;1190;97535;-76
2021/10/29 03:12:11;;;;;;;46.30;26.90;;;;;;;;;;139159;1191;97648;-75
2021/10/29 03:15:15;;;;;;;50.60;29.60;;;;;;;;;;138984;1190;97590;-75
2021/10/29 03:18:19;;;;;;;47.70;28.60;;;;;;;;;;139125;1190;96288;-75
2021/10/29 03:21:23;;;;;;;49.30;28.70;;;;;;;;;;139120;1189;97106;-75
2021/10/29 03:24:27;;;;;;;50.70;29.70;;;;;;;;;;139102;1197;97588;-76
2021/10/29 03:27:30;;;;;;;62.20;34.20;;;;;;;;;;139111;1190;96395;-76
2021/10/29 03:30:35;;;;;;;56.20;34.10;;;;;;;;;;139078;1190;96630;-76
2021/10/29 03:33:39;;;;;;;60.40;33.80;;;;;;;;;;139069;1190;97163;-75
2021/10/29 03:36:43;;;;;;;51.80;29.70;;;;;;;;;;139084;1190;97159;-75
2021/10/29 03:39:52;;;;;;;53.80;30.90;;;;;;;;;;139093;1197;97546;-76
2021/10/29 03:43:04;;;;;;;59.10;33.70;;;;;;;;;;139025;1190;96998;-74
2021/10/29 03:46:12;;;;;;;58.60;34.60;;;;;;;;;;139006;1190;96720;-75
2021/10/29 03:49:22;;;;;;;57.90;34.10;;;;;;;;;;139063;1198;97156;-76
2021/10/29 03:52:29;;;;;;;61.80;35.10;;;;;;;;;;139064;1190;97578;-75
2021/10/29 03:55:36;;;;;;;63.20;37.60;;;;;;;;;;139095;1190;96393;-75
2021/10/29 03:58:40;;;;;;;60.90;36.10;;;;;;;;;;139067;1190;96822;-75
2021/10/29 04:01:44;;;;;;;61.40;32.60;;;;;;;;;;139026;1190;97579;-75
2021/10/29 04:04:48;;;;;;;60.80;34.50;;;;;;;;;;139035;1190;96315;-77
2021/10/29 04:07:52;;;;;;;50.70;29.90;;;;;;;;;;139047;1190;96290;-75
2021/10/29 04:10:56;;;;;;;51.40;28.40;;;;;;;;;;139009;1197;97569;-73
2021/10/29 04:14:00;;;;;;;56.80;34.70;;;;;;;;;;139133;1190;96289;-75
2021/10/29 04:17:05;;;;;;;52.30;32.00;;;;;;;;;;139085;1190;96296;-76
2021/10/29 04:20:10;;;;;;;56.20;33.80;;;;;;;;;;139095;1190;96305;-75
2021/10/29 04:23:13;;;;;;;61.30;36.00;;;;;;;;;;138974;1190;96392;-75
2021/10/29 04:26:18;;;;;;;64.30;36.80;;;;;;;;;;139060;1190;96738;-75
2021/10/29 04:29:25;;;;;;;63.70;37.50;;;;;;;;;;139012;1190;96304;-76
2021/10/29 04:32:29;;;;;;;60.60;34.70;;;;;;;;;;139089;1190;96422;-75
2021/10/29 04:35:33;;;;;;;64.50;35.60;;;;;;;;;;139097;1193;97119;-74
2021/10/29 04:38:37;;;;;;;61.80;33.20;;;;;;;;;;139022;1189;97560;-76
2021/10/29 04:41:42;;;;;;;62.10;36.10;;;;;;;;;;139072;1190;96384;-76
2021/10/29 04:44:45;;;;;;;67.40;37.50;;;;;;;;;;138976;1189;97552;-76
2021/10/29 04:47:49;;;;;;;60.10;35.40;;;;;;;;;;139104;1190;96303;-74
2021/10/29 04:50:53;;;;;;;65.20;37.70;;;;;;;;;;139016;1190;96771;-74
2021/10/29 04:53:58;;;;;;;63.10;38.50;;;;;;;;;;139033;1190;96308;-77
2021/10/29 04:57:01;;;;;;;64.90;39.00;;;;;;;;;;139376;1190;96360;-75
2021/10/29 05:00:07;;;;;;;65.50;35.50;;;;;;;;;;139355;1190;96687;-74
2021/10/29 05:03:11;;;;;;;59.20;35.60;;;;;;;;;;139363;1189;97713;-76
2021/10/29 05:06:15;;;;;;;60.80;34.30;;;;;;;;;;139353;1189;97521;-76
2021/10/29 05:09:19;;;;;;;62.10;36.00;;;;;;;;;;139288;1190;96272;-76
2021/10/29 05:12:22;;;;;;;65.40;39.10;;;;;;;;;;139318;1190;96395;-76
2021/10/29 05:15:26;;;;;;;62.30;36.90;;;;;;;;;;139319;1189;96317;-75
2021/10/29 05:18:30;;;;;;;61.90;35.70;;;;;;;;;;139379;1193;96323;-76
2021/10/29 05:21:34;;;;;;;57.30;34.90;;;;;;;;;;139361;1189;96360;-76
2021/10/29 05:24:38;;;;;;;59.30;36.20;;;;;;;;;;139334;1190;96646;-75
2021/10/29 05:27:42;;;;;;;60.30;34.80;;;;;;;;;;139322;1189;96420;-75
2021/10/29 05:30:46;;;;;;;59.80;34.10;;;;;;;;;;139314;1190;96302;-75
2021/10/29 05:33:50;;;;;;;54.80;31.20;;;;;;;;;;139335;1190;96414;-76
2021/10/29 05:36:55;;;;;;;58.40;32.90;;;;;;;;;;139393;1191;96315;-73
2021/10/29 05:39:59;;;;;;;61.40;34.40;;;;;;;;;;139389;1190;96736;-74
2021/10/29 05:43:03;;;;;;;58.50;33.80;;;;;;;;;;139320;1190;96456;-75
2021/10/29 05:46:06;;;;;;;60.20;35.10;;;;;;;;;;139290;1196;97244;-75
2021/10/29 05:49:12;;;;;;;57.00;35.00;;;;;;;;;;139250;1196;96309;-74
2021/10/29 05:52:19;;;;;;;54.60;34.00;;;;;;;;;;139232;1189;97722;-75
2021/10/29 05:55:23;;;;;;;57.70;34.60;;;;;;;;;;139266;1189;96709;-75
2021/10/29 05:58:28;;;;;;;54.20;32.10;;;;;;;;;;139216;1189;96406;-75
2021/10/29 06:01:32;;;;;;;59.80;33.10;;;;;;;;;;139221;1189;97542;-75
2021/10/29 06:04:35;;;;;;;51.00;29.40;;;;;;;;;;139206;1192;96750;-75
2021/10/29 06:07:40;;;;;;;51.90;32.80;;;;;;;;;;139224;1189;97558;-75
2021/10/29 06:10:43;;;;;;;55.80;33.30;;;;;;;;;;139217;1191;97135;-75
2021/10/29 06:13:47;;;;;;;56.20;34.50;;;;;;;;;;139221;1189;97622;-74
2021/10/29 06:16:52;;;;;;;62.60;35.10;;;;;;;;;;139230;1189;96694;-75
2021/10/29 06:19:55;;;;;;;61.90;35.10;;;;;;;;;;139266;1189;96306;-75
2021/10/29 06:23:00;;;;;;;58.80;34.60;;;;;;;;;;139225;1189;97621;-76
2021/10/29 06:26:11;;;;;;;55.30;32.90;;;;;;;;;;139229;1189;96760;-75
2021/10/29 06:29:15;;;;;;;52.20;31.80;;;;;;;;;;139239;1189;97609;-76
2021/10/29 06:32:21;;;;;;;50.30;31.70;;;;;;;;;;139247;1189;96279;-74
2021/10/29 06:35:25;;;;;;;52.90;33.00;;;;;;;;;;139170;1191;97569;-75
2021/10/29 06:38:29;;;;;;;53.50;33.30;;;;;;;;;;139216;1189;96291;-76
2021/10/29 06:41:33;;;;;;;56.10;34.30;;;;;;;;;;139166;1189;96281;-74
2021/10/29 06:44:44;;;;;;;53.90;34.70;;;;;;;;;;139170;1189;96305;-74
2021/10/29 06:47:52;;;;;;;54.10;34.60;;;;;;;;;;139195;1192;97140;-75
2021/10/29 07:01:16;;;;;;;49.40;32.60;;;;;;;;;;139171;1190;97274;-74
2021/10/29 07:04:36;;;;;;;51.20;33.40;;;;;;;;;;139207;1188;96656;-74
2021/10/29 07:41:17;;;;;;;47.50;29.30;;;;;;;;;;139178;1193;97587;-75
2021/10/29 07:44:26;;;;;;;50.50;29.30;;;;;;;;;;139153;1191;97146;-74
2021/10/29 07:47:30;;;;;;;52.10;32.50;;;;;;;;;;139181;1189;97563;-75
2021/10/29 07:50:35;;;;;;;50.30;31.90;;;;;;;;;;139212;1189;96304;-75
2021/10/29 07:53:39;;;;;;;47.80;32.10;;;;;;;;;;139183;1191;96285;-74
2021/10/29 07:56:43;;;;;;;53.10;33.70;;;;;;;;;;139178;1189;97035;-74
2021/10/29 07:59:47;;;;;;;49.00;32.20;;;;;;;;;;139109;1190;97585;-75
2021/10/29 08:02:51;;;;;;;50.80;33.20;;;;;;;;;;139197;1195;97556;-74
2021/10/29 08:05:55;;;;;;;46.10;30.00;;;;;;;;;;139091;1191;97543;-76
2021/10/29 08:09:00;;;;;;;45.90;27.70;;;;;;;;;;139212;1190;97570;-75
2021/10/29 08:12:04;;;;;;;49.90;33.10;;;;;;;;;;139257;1189;96952;-77
2021/10/29 08:15:09;;;;;;;49.60;32.80;;;;;;;;;;139153;1190;96296;-73
2021/10/29 08:18:13;;;;;;;47.30;31.40;;;;;;;;;;139184;1181;96306;-76
2021/10/29 08:21:17;;;;;;;47.60;31.40;;;;;;;;;;139219;1190;97131;-75
2021/10/29 08:24:21;;;;;;;46.60;31.50;;;;;;;;;;139220;1196;97117;-76
2021/10/29 08:27:25;;;;;;;46.80;30.90;;;;;;;;;;139215;1190;97116;-76
2021/10/29 08:30:29;;;;;;;47.20;31.30;;;;;;;;;;139262;1186;96305;-76
2021/10/29 08:33:33;;;;;;;43.80;28.70;;;;;;;;;;139219;1190;97569;-75
2021/10/29 08:36:39;;;;;;;42.80;26.70;;;;;;;;;;139229;1191;96300;-73
2021/10/29 08:39:42;;;;;;;43.20;29.30;;;;;;;;;;139249;1189;97552;-75
2021/10/29 08:42:46;;;;;;;45.20;30.60;;;;;;;;;;139182;1192;97555;-74
2021/10/29 08:45:51;;;;;;;48.10;31.20;;;;;;;;;;139127;1196;97549;-76
2021/10/29 08:48:55;;;;;;;46.50;30.90;;;;;;;;;;139192;1190;96413;-76
2021/10/29 08:52:00;;;;;;;48.60;32.30;;;;;;;;;;139266;1190;97164;-75
2021/10/29 08:55:07;;;;;;;49.30;31.30;;;;;;;;;;139270;1190;97148;-73
2021/10/29 08:58:11;;;;;;;48.50;31.90;;;;;;;;;;139224;1190;97710;-74
2021/10/29 09:01:19;;;;;;;48.70;32.90;;;;;;;;;;139154;1190;97564;-75
2021/10/29 09:04:33;;;;;;;45.20;28.30;;;;;;;;;;139223;1191;97649;-76
2021/10/29 09:07:47;;;;;;;40.70;27.60;;;;;;;;;;139213;1190;96410;-75
2021/10/29 09:11:13;;;;;;;44.90;29.60;;;;;;;;;;139220;1190;97641;-75
2021/10/29 09:17:50;;;;;;;42.00;29.00;;;;;;;;;;139239;1190;96282;-76
2021/10/29 09:31:31;;;;;;;46.40;30.00;;;;;;;;;;139214;1196;96290;-74
2021/10/29 09:34:35;;;;;;;48.60;30.10;;;;;;;;;;139156;1195;97122;-74
2021/10/29 09:37:56;;;;;;;45.00;28.40;;;;;;;;;;139176;1190;97553;-76
2021/10/29 09:41:35;;;;;;;41.20;25.80;;;;;;;;;;138799;1191;97127;-75
2021/10/29 09:44:45;;;;;;;42.70;29.10;;;;;;;;;;139203;1191;97230;-74
2021/10/29 09:47:55;;;;;;;45.20;30.20;;;;;;;;;;139252;1189;97571;-74
2021/10/29 09:51:05;;;;;;;41.40;28.60;;;;;;;;;;139235;1190;97523;-75
2021/10/29 09:54:14;;;;;;;45.80;30.00;;;;;;;;;;139196;1190;97259;-76
2021/10/29 09:57:19;;;;;;;43.50;29.10;;;;;;;;;;139183;1190;97641;-74
2021/10/29 10:00:23;;;;;;;42.30;28.20;;;;;;;;;;139263;1189;96268;-76
2021/10/29 10:03:27;;;;;;;43.90;30.20;;;;;;;;;;139150;1191;97548;-75
2021/10/29 10:06:32;;;;;;;43.80;29.30;;;;;;;;;;139247;1190;97575;-76
2021/10/29 10:09:38;;;;;;;43.60;29.30;;;;;;;;;;139238;1189;96277;-74
2021/10/29 10:12:43;;;;;;;43.10;28.30;;;;;;;;;;139197;1190;97595;-75
2021/10/29 10:15:50;;;;;;;44.90;29.60;;;;;;;;;;139246;1180;97132;-76
2021/10/29 10:18:55;;;;;;;41.70;27.30;;;;;;;;;;139248;1190;97569;-76
2021/10/29 10:22:00;;;;;;;39.20;26.30;;;;;;;;;;139154;1180;96402;-75
2021/10/29 10:25:08;;;;;;;42.10;28.30;;;;;;;;;;139264;1189;97592;-76
2021/10/29 10:45:19;;;;;;;40.10;27.80;;;;;;;;;;139177;1194;97592;-77
2021/10/29 10:48:26;;;;;;;36.90;26.20;;;;;;;;;;139246;1190;96343;-77
2021/10/29 10:51:42;;;;;;;37.70;26.00;;;;;;;;;;139268;1190;97119;-76
2021/10/29 10:54:49;;;;;;;36.80;25.20;;;;;;;;;;139319;1190;96288;-77
2021/10/29 10:58:08;;;;;;;35.80;25.90;;;;;;;;;;139287;1190;97250;-77
2021/10/29 11:01:23;;;;;;;35.10;24.90;;;;;;;;;;139265;1190;97119;-77
2021/10/29 11:11:14;;;;;;;33.80;24.20;;;;;;;;;;139194;1190;97573;-77
2021/10/29 11:14:32;;;;;;;36.60;24.90;;;;;;;;;;139201;1190;96415;-77
2021/10/29 11:17:43;;;;;;;35.60;24.00;;;;;;;;;;139110;1190;97142;-76
2021/10/29 11:20:48;;;;;;;34.20;24.10;;;;;;;;;;139178;1197;97582;-77
2021/10/29 11:23:54;;;;;;;38.60;25.20;;;;;;;;;;139187;1190;97621;-77
2021/10/29 11:27:04;;;;;;;35.10;24.60;;;;;;;;;;139148;1190;97166;-77
2021/10/29 11:30:09;;;;;;;34.60;23.40;;;;;;;;;;139355;1190;97132;-76
2021/10/29 11:33:14;;;;;;;33.10;23.80;;;;;;;;;;139047;1190;97498;-76
2021/10/29 11:36:19;;;;;;;33.00;23.00;;;;;;;;;;139083;1190;97569;-75
2021/10/29 11:39:24;;;;;;;33.80;23.30;;;;;;;;;;139152;1190;96346;-76
2021/10/29 11:42:29;;;;;;;33.40;23.30;;;;;;;;;;139107;1190;96288;-76
2021/10/29 11:45:35;;;;;;;32.90;23.90;;;;;;;;;;139051;1190;97136;-76
2021/10/29 11:48:55;;;;;;;31.90;24.00;;;;;;;;;;139147;1190;97167;-77
2021/10/29 11:52:01;;;;;;;33.40;23.70;;;;;;;;;;139118;1190;96967;-77
2021/10/29 11:55:15;;;;;;;34.20;23.40;;;;;;;;;;139192;1190;96317;-76
2021/10/29 11:58:33;;;;;;;34.50;23.70;;;;;;;;;;139201;1190;96865;-76
2021/10/29 12:01:51;;;;;;;30.70;22.30;;;;;;;;;;139139;1189;97544;-77
2021/10/29 12:08:36;;;;;;;28.60;21.00;;;;;;;;;;138665;1192;96696;-75
2021/10/29 12:11:40;;;;;;;29.70;21.70;;;;;;;;;;138620;1193;97092;-75
2021/10/29 12:14:45;;;;;;;28.20;20.20;;;;;;;;;;139120;1190;97579;-75
2021/10/29 12:17:54;;;;;;;28.90;20.50;;;;;;;;;;139258;1190;97537;-76
2021/10/29 12:20:58;;;;;;;27.40;20.70;;;;;;;;;;139323;1190;97550;-76
2021/10/29 12:24:05;;;;;;;29.00;20.80;;;;;;;;;;139284;1190;96761;-76
2021/10/29 12:27:15;;;;;;;28.50;19.40;;;;;;;;;;139346;1190;96361;-76
2021/10/29 12:30:26;;;;;;;27.30;20.00;;;;;;;;;;139336;1190;96351;-76
2021/10/29 12:37:28;;;;;;;32.20;22.00;;;;;;;;;;139248;1189;96311;-76
2021/10/29 12:54:20;;;;;;;31.10;20.80;;;;;;;;;;139365;1181;96700;-75
2021/10/29 13:04:18;;;;;;;26.80;19.90;;;;;;;;;;139272;1190;96695;-75
2021/10/29 13:07:26;;;;;;;28.60;21.20;;;;;;;;;;139203;1190;97567;-75
2021/10/29 13:10:30;;;;;;;29.00;21.10;;;;;;;;;;139351;1190;97569;-75
2021/10/29 13:13:39;;;;;;;29.40;20.40;;;;;;;;;;139394;1189;96365;-76
2021/10/29 13:16:43;;;;;;;29.50;21.70;;;;;;;;;;139281;1190;97129;-76
2021/10/29 13:20:03;;;;;;;31.50;22.00;;;;;;;;;;139295;1189;97685;-76
2021/10/29 13:23:35;;;;;;;30.80;21.00;;;;;;;;;;139364;1189;97144;-76
2021/10/29 13:37:18;;;;;;;31.70;22.10;;;;;;;;;;138742;1193;97296;-76
2021/10/29 13:50:53;;;;;;;30.20;21.30;;;;;;;;;;139140;1197;97136;-76
2021/10/29 13:54:04;;;;;;;29.40;20.50;;;;;;;;;;139116;1190;97546;-76
2021/10/29 14:30:44;;;;;;;28.00;19.10;;;;;;;;;;139351;1189;96285;-73
2021/10/29 14:33:50;;;;;;;26.40;18.80;;;;;;;;;;139520;1190;96690;-74
2021/10/29 14:36:59;;;;;;;24.00;17.60;;;;;;;;;;139210;1190;97546;-73
2021/10/29 14:40:09;;;;;;;24.90;18.20;;;;;;;;;;139063;1190;96296;-74
2021/10/29 14:43:17;;;;;;;30.30;18.90;;;;;;;;;;138991;1191;97604;-78
2021/10/29 14:46:31;;;;;;;26.00;18.10;;;;;;;;;;139117;1190;97131;-72
2021/10/29 14:49:47;;;;;;;25.00;16.40;;;;;;;;;;139323;1184;97561;-75
2021/10/29 14:53:16;;;;;;;23.60;16.00;;;;;;;;;;139305;1181;97152;-77
2021/10/29 15:06:36;;;;;;;24.50;16.70;;;;;;;;;;139248;1190;96388;-76
2021/10/29 15:16:43;;;;;;;26.90;17.40;;;;;;;;;;139205;1190;97571;-73
2021/10/29 15:29:54;;;;;;;27.60;18.70;;;;;;;;;;139349;1190;97589;-78
2021/10/29 15:33:24;;;;;;;25.70;16.70;;;;;;;;;;139220;1190;96287;-77
2021/10/29 15:46:38;;;;;;;29.40;19.80;;;;;;;;;;139314;1189;96650;-79
2021/10/29 15:49:44;;;;;;;30.40;20.60;;;;;;;;;;139432;1189;96336;-80
2021/10/29 15:52:52;;;;;;;33.50;22.20;;;;;;;;;;139376;1190;96285;-80
2021/10/29 15:55:58;;;;;;;33.70;21.30;;;;;;;;;;139488;1190;97584;-77
2021/10/29 15:59:12;;;;;;;35.50;22.60;;;;;;;;;;139269;1189;97179;-77
2021/10/29 16:02:31;;;;;;;35.90;23.70;;;;;;;;;;139243;1190;97592;-77
2021/10/29 16:19:01;;;;;;;33.70;22.00;;;;;;;;;;139067;1190;96303;-75
2021/10/29 16:22:07;;;;;;;34.90;23.10;;;;;;;;;;139092;1190;97521;-76
2021/10/29 16:25:14;;;;;;;36.60;22.60;;;;;;;;;;139050;1190;96638;-75
2021/10/29 16:28:20;;;;;;;36.10;22.50;;;;;;;;;;139072;1184;97589;-76
2021/10/29 16:31:26;;;;;;;36.50;22.50;;;;;;;;;;139180;1190;97550;-76
2021/10/29 16:34:30;;;;;;;38.20;26.00;;;;;;;;;;139076;1190;97123;-76
2021/10/29 16:37:34;;;;;;;35.90;22.80;;;;;;;;;;139236;1174;96639;-76
2021/10/29 16:40:38;;;;;;;44.50;27.20;;;;;;;;;;139276;1190;96400;-78
2021/10/29 16:43:42;;;;;;;53.40;34.00;;;;;;;;;;139192;1190;96396;-78
2021/10/29 16:46:46;;;;;;;40.20;25.70;;;;;;;;;;139157;1190;97120;-77
2021/10/29 16:49:50;;;;;;;38.80;25.40;;;;;;;;;;139078;1190;97144;-78
2021/10/29 16:52:54;;;;;;;41.60;25.70;;;;;;;;;;139147;1190;97179;-80
2021/10/29 16:55:59;;;;;;;38.00;24.60;;;;;;;;;;139245;1190;97551;-76
2021/10/29 16:59:03;;;;;;;38.30;25.30;;;;;;;;;;139119;1190;97145;-76
2021/10/29 17:02:08;;;;;;;38.30;23.80;;;;;;;;;;140165;1190;96282;-79
2021/10/29 17:05:13;;;;;;;35.10;23.00;;;;;;;;;;139771;1190;96316;-78
2021/10/29 17:08:17;;;;;;;36.90;23.60;;;;;;;;;;139153;1190;96403;-78
2021/10/29 17:11:21;;;;;;;38.40;24.50;;;;;;;;;;139651;1190;97106;-78
2021/10/29 17:14:26;;;;;;;39.00;24.70;;;;;;;;;;139168;1190;96306;-78
2021/10/29 17:17:30;;;;;;;38.00;24.40;;;;;;;;;;139455;1190;97168;-77
2021/10/29 17:20:34;;;;;;;38.00;24.10;;;;;;;;;;139248;1190;97558;-80
2021/10/29 17:23:39;;;;;;;40.50;24.90;;;;;;;;;;139239;1191;96857;-80
2021/10/29 17:26:42;;;;;;;33.60;21.50;;;;;;;;;;139515;1190;96305;-80
2021/10/29 17:29:47;;;;;;;30.60;19.40;;;;;;;;;;139695;1189;96291;-77
2021/10/29 17:32:51;;;;;;;32.30;20.20;;;;;;;;;;139614;1189;96321;-81
2021/10/29 17:35:56;;;;;;;46.50;28.30;;;;;;;;;;139478;1190;96700;-77
2021/10/29 17:39:00;;;;;;;168.20;87.80;;;;;;;;;;139734;1190;97567;-75
2021/10/29 17:42:05;;;;;;;80.50;43.20;;;;;;;;;;139506;1189;96282;-77
2021/10/29 17:45:12;;;;;;;56.90;34.50;;;;;;;;;;139306;1190;97146;-76
2021/10/29 17:48:16;;;;;;;48.80;28.80;;;;;;;;;;139506;1196;97235;-78
2021/10/29 17:51:20;;;;;;;49.20;30.50;;;;;;;;;;139336;1189;97572;-78
2021/10/29 17:54:25;;;;;;;91.20;49.40;;;;;;;;;;139408;1189;96308;-76
2021/10/29 17:57:29;;;;;;;79.30;43.40;;;;;;;;;;139254;1190;96359;-79
2021/10/29 18:00:33;;;;;;;59.40;34.00;;;;;;;;;;139344;1190;96297;-81
2021/10/29 18:03:37;;;;;;;79.60;39.00;;;;;;;;;;139527;1189;97556;-79
2021/10/29 18:06:41;;;;;;;72.60;34.60;;;;;;;;;;139705;1190;96318;-83
2021/10/29 18:09:45;;;;;;;56.50;29.20;;;;;;;;;;139587;1190;97180;-80
2021/10/29 18:12:49;;;;;;;93.70;46.00;;;;;;;;;;139484;1190;96743;-81
2021/10/29 18:15:52;;;;;;;58.20;31.70;;;;;;;;;;139375;1190;96284;-81
2021/10/29 18:18:57;;;;;;;45.90;28.30;;;;;;;;;;139438;1189;97224;-82
2021/10/29 18:22:01;;;;;;;40.90;25.80;;;;;;;;;;139376;1190;97570;-82
2021/10/29 18:25:06;;;;;;;39.20;24.00;;;;;;;;;;139349;1190;97586;-82
2021/10/29 18:28:11;;;;;;;45.40;27.70;;;;;;;;;;139353;1193;96337;-82
2021/10/29 18:31:15;;;;;;;47.30;28.70;;;;;;;;;;139340;1190;96316;-82
2021/10/29 18:34:19;;;;;;;42.60;25.60;;;;;;;;;;139234;1190;96392;-81
2021/10/29 18:37:24;;;;;;;37.70;23.60;;;;;;;;;;139217;1190;96320;-81
2021/10/29 18:40:28;;;;;;;32.30;20.60;;;;;;;;;;139396;1190;96400;-81
2021/10/29 18:43:32;;;;;;;34.90;19.20;;;;;;;;;;139292;1190;96399;-77
2021/10/29 18:46:37;;;;;;;32.80;20.30;;;;;;;;;;139127;1196;97144;-76
2021/10/29 18:49:41;;;;;;;35.10;21.00;;;;;;;;;;139125;1193;97155;-81
2021/10/29 18:52:45;;;;;;;34.80;21.10;;;;;;;;;;139270;1190;96308;-82
2021/10/29 18:55:50;;;;;;;32.20;20.10;;;;;;;;;;139335;1191;96801;-81
2021/10/29 18:58:54;;;;;;;37.40;21.20;;;;;;;;;;139342;1190;96303;-81
2021/10/29 19:01:58;;;;;;;33.40;20.70;;;;;;;;;;139290;1190;96332;-80
2021/10/29 19:05:01;;;;;;;34.10;20.40;;;;;;;;;;139309;1190;96649;-82
2021/10/29 19:08:06;;;;;;;33.20;20.70;;;;;;;;;;139305;1190;96322;-80
2021/10/29 19:11:09;;;;;;;36.80;22.70;;;;;;;;;;139299;1190;96362;-79
2021/10/29 19:14:14;;;;;;;31.60;20.70;;;;;;;;;;139131;1190;96287;-78
2021/10/29 19:17:19;;;;;;;33.00;20.70;;;;;;;;;;139123;1190;96293;-78
2021/10/29 19:20:23;;;;;;;32.50;18.70;;;;;;;;;;139150;1190;96318;-78
2021/10/29 19:23:28;;;;;;;66.40;37.70;;;;;;;;;;139225;1190;96363;-77
2021/10/29 19:26:32;;;;;;;65.30;41.30;;;;;;;;;;139097;1190;97111;-78
2021/10/29 19:29:37;;;;;;;56.30;35.30;;;;;;;;;;139163;1197;97161;-77
2021/10/29 19:32:42;;;;;;;39.80;24.50;;;;;;;;;;139013;1190;96737;-80
2021/10/29 19:35:49;;;;;;;35.10;22.20;;;;;;;;;;139133;1190;96736;-79
2021/10/29 19:39:00;;;;;;;34.10;21.40;;;;;;;;;;139335;1190;97557;-79
2021/10/29 19:42:06;;;;;;;36.70;21.70;;;;;;;;;;139170;1190;97612;-80
2021/10/29 19:45:11;;;;;;;31.40;19.40;;;;;;;;;;139344;1190;97575;-78
2021/10/29 19:48:15;;;;;;;33.20;20.00;;;;;;;;;;139169;1190;97559;-78
2021/10/29 19:51:19;;;;;;;29.40;19.30;;;;;;;;;;139187;1190;96378;-77
2021/10/29 19:54:24;;;;;;;40.40;22.50;;;;;;;;;;139164;1193;97231;-79
2021/10/29 19:57:39;;;;;;;57.00;35.60;;;;;;;;;;139000;1191;97567;-80
2021/10/29 20:00:43;;;;;;;40.70;24.80;;;;;;;;;;139150;1190;96308;-78
2021/10/29 20:03:47;;;;;;;35.60;23.40;;;;;;;;;;139178;1197;97120;-79
2021/10/29 20:06:51;;;;;;;31.40;20.80;;;;;;;;;;139159;1190;96911;-78
2021/10/29 20:09:55;;;;;;;28.70;17.00;;;;;;;;;;139130;1190;97143;-77
2021/10/29 20:13:00;;;;;;;28.90;17.00;;;;;;;;;;139108;1190;96378;-78
2021/10/29 20:16:04;;;;;;;27.40;16.90;;;;;;;;;;139144;1189;97605;-78
2021/10/29 20:19:08;;;;;;;31.20;19.20;;;;;;;;;;139166;1190;97159;-74
2021/10/29 20:22:12;;;;;;;28.90;18.10;;;;;;;;;;139173;1189;97111;-77
2021/10/29 20:25:16;;;;;;;30.40;18.80;;;;;;;;;;139205;1190;96332;-77
2021/10/29 20:28:20;;;;;;;32.70;19.10;;;;;;;;;;139157;1190;97554;-80
2021/10/29 20:31:23;;;;;;;32.60;20.60;;;;;;;;;;139123;1190;96423;-76
2021/10/29 20:34:27;;;;;;;116.40;57.50;;;;;;;;;;139139;1190;96308;-78
2021/10/29 20:37:31;;;;;;;66.00;33.50;;;;;;;;;;139212;1190;97563;-79
2021/10/29 20:40:35;;;;;;;45.00;23.20;;;;;;;;;;139224;1190;96294;-79
2021/10/29 20:43:39;;;;;;;44.80;25.40;;;;;;;;;;139191;1190;96314;-78
2021/10/29 20:46:43;;;;;;;38.60;22.80;;;;;;;;;;139191;1190;97115;-80
2021/10/29 20:49:47;;;;;;;71.30;39.30;;;;;;;;;;139213;1182;96324;-76
2021/10/29 20:52:53;;;;;;;260.20;107.00;;;;;;;;;;139286;1190;96955;-80
2021/10/29 20:55:58;;;;;;;176.80;69.10;;;;;;;;;;139152;1190;97596;-76
2021/10/29 20:59:02;;;;;;;98.60;41.30;;;;;;;;;;139097;1190;97581;-77
2021/10/29 21:02:06;;;;;;;47.10;24.80;;;;;;;;;;139174;1190;97131;-78
2021/10/29 21:05:10;;;;;;;38.60;21.90;;;;;;;;;;139134;1189;97105;-76
2021/10/29 21:08:14;;;;;;;35.80;21.70;;;;;;;;;;139221;1190;96323;-75
2021/10/29 21:11:18;;;;;;;38.30;23.40;;;;;;;;;;139215;1190;96657;-74
2021/10/29 21:14:23;;;;;;;79.10;40.60;;;;;;;;;;139163;1190;97497;-77
2021/10/29 21:17:27;;;;;;;53.30;30.00;;;;;;;;;;139174;1190;96680;-76
2021/10/29 21:20:31;;;;;;;40.30;23.40;;;;;;;;;;139149;1190;96312;-76